createdAt,value
2023-04-26T00:10:53.582Z,0.9
2023-04-26T02:01:17.570Z,-0.2
2023-04-26T02:31:23.488Z,-0.3
2023-04-26T02:51:28.065Z,-0.5
2023-04-26T03:01:29.994Z,-0.6
2023-04-26T03:21:34.592Z,-0.5
2023-04-26T03:31:37.030Z,-0.1
2023-04-26T03:41:39.694Z,-0.2
2023-04-26T03:51:41.648Z,0
2023-04-26T04:01:43.824Z,-0.4
2023-04-26T04:11:47.454Z,-0.4
2023-04-26T04:21:47.685Z,-0.2
2023-04-26T04:31:49.419Z,-0.3
2023-04-26T04:51:53.503Z,-0.2
2023-04-26T05:11:58.461Z,0.8
2023-04-26T05:32:03.536Z,1.6
2023-04-26T05:52:07.672Z,2.5
2023-04-26T06:02:10.243Z,3.7
2023-04-26T06:12:12.614Z,4.4
2023-04-26T06:22:14.699Z,4.8
2023-04-26T06:32:16.831Z,4.7
2023-04-26T06:42:19.247Z,5.6
2023-04-26T07:02:23.640Z,6.1
2023-04-26T07:22:27.710Z,6
2023-04-26T07:42:32.663Z,7.6
2023-04-26T08:02:44.408Z,7.1
2023-04-26T08:22:40.701Z,6.7
2023-04-26T08:42:44.781Z,7.1
2023-04-26T09:02:49.126Z,7.1
2023-04-26T09:22:53.263Z,7.1
2023-04-26T09:42:58.100Z,7.6
2023-04-26T09:52:59.767Z,7.3
2023-04-26T10:03:02.050Z,7.3
2023-04-26T10:13:04.584Z,8.2
2023-04-26T10:23:07.153Z,7.7
2023-04-26T10:33:09.470Z,7.8
2023-04-26T10:43:11.453Z,7.9
2023-04-26T10:53:13.334Z,9.1
2023-04-26T11:03:15.454Z,8.5
2023-04-26T11:13:18.059Z,8.5
2023-04-26T11:23:19.702Z,8.1
2023-04-26T11:43:24.437Z,8.1
2023-04-26T11:53:26.787Z,8.2
2023-04-26T12:03:28.747Z,8.4
2023-04-26T12:13:30.339Z,8.5
2023-04-26T12:23:32.511Z,8.7
2023-04-26T12:33:34.236Z,8.5
2023-04-26T12:43:36.265Z,9.1
2023-04-26T12:53:38.066Z,9.1
2023-04-26T13:03:40.676Z,9.2
2023-04-26T13:13:44.021Z,9.3
2023-04-26T13:23:44.250Z,9.3
2023-04-26T13:33:46.409Z,9.3
2023-04-26T13:43:48.242Z,9.1
2023-04-26T13:53:50.715Z,8.7
2023-04-26T14:03:55.074Z,9.5
2023-04-26T14:13:54.558Z,9.5
2023-04-26T14:23:56.902Z,9.6
2023-04-26T14:33:59.249Z,9.4
2023-04-26T14:44:01.779Z,9.3
2023-04-26T14:54:04.000Z,9.4
2023-04-26T15:04:06.182Z,9.4
2023-04-26T15:14:08.093Z,9.8
2023-04-26T15:24:10.220Z,9.7
2023-04-26T15:34:12.329Z,9.4
2023-04-26T15:44:14.332Z,8.9
2023-04-26T15:54:16.208Z,8.7
2023-04-26T16:04:18.790Z,8.9
2023-04-26T16:14:20.457Z,8.6
2023-04-26T16:24:22.292Z,8.5
2023-04-26T16:34:24.353Z,8.3
2023-04-26T16:44:26.475Z,8.2
2023-04-26T16:54:29.009Z,8.1
2023-04-26T17:04:31.134Z,8.2
2023-04-26T17:24:35.725Z,8.2
2023-04-26T17:34:37.965Z,8
2023-04-26T17:44:40.414Z,7.9
2023-04-26T17:54:42.412Z,7.7
2023-04-26T18:04:45.180Z,7.5
2023-04-26T18:24:48.879Z,6.7
2023-04-26T18:34:51.250Z,6.5
2023-04-26T18:44:53.922Z,6.3
2023-04-26T18:54:56.120Z,6.2
2023-04-26T19:04:58.860Z,5.9
2023-04-26T19:15:00.406Z,5.9
2023-04-26T19:25:02.639Z,5.7
2023-04-26T19:35:05.175Z,5.9
2023-04-26T19:45:07.729Z,5.5
2023-04-26T19:55:09.418Z,5.5
2023-04-26T20:15:14.251Z,5.6
2023-04-26T20:25:16.452Z,5.6
2023-04-26T20:35:18.609Z,5.4
2023-04-26T20:45:21.108Z,5.1
2023-04-26T20:55:23.668Z,5
2023-04-26T21:05:26.292Z,5
2023-04-26T21:15:28.359Z,5.1
2023-04-26T21:25:30.111Z,5
2023-04-26T21:35:32.389Z,4.7
2023-04-26T21:45:34.810Z,4.7
2023-04-26T21:55:36.694Z,4.5
2023-04-26T22:05:38.601Z,4.2
2023-04-26T22:15:40.307Z,4
2023-04-26T22:25:42.205Z,3.8
2023-04-26T22:35:44.553Z,3.6
2023-04-26T22:45:46.560Z,3.3
2023-04-26T23:05:50.828Z,2.7
2023-04-26T23:15:53.108Z,2.3
2023-04-26T23:25:55.721Z,2
2023-04-26T23:35:57.942Z,1.7
2023-04-26T23:46:07.155Z,1.5
2023-04-26T23:56:08.984Z,1.7
